Time;durP1;ratioP1;P1;durP2;ratioP2;P2;SDS_P1;SDS_P2;PMS_P1;PMS_P2;Temp;Humidity;BMP_temperature;BMP_pressure;BME280_temperature;BME280_humidity;BME280_pressure;Samples;Min_cycle;Max_cycle;Signal;HPM_P1;HPM_P2
2021/09/20 00:02:24;;;;;;;9.23;6.35;;;10.60;93.90;;;;;;5011125;28;20090;-83
2021/09/20 00:04:49;;;;;;;9.68;7.07;;;10.50;94.60;;;;;;5040670;28;20512;-83
2021/09/20 00:07:15;;;;;;;9.93;6.78;;;10.30;93.60;;;;;;5020954;28;20037;-83
2021/09/20 00:09:40;;;;;;;9.52;6.55;;;10.20;94.30;;;;;;5045469;28;20362;-84
2021/09/20 00:12:06;;;;;;;9.90;6.53;;;10.20;95.20;;;;;;5042401;28;20467;-83
2021/09/20 00:14:31;;;;;;;9.73;7.05;;;10.10;93.50;;;;;;5037657;28;20119;-84
2021/09/20 00:16:57;;;;;;;9.60;7.07;;;10.20;94.20;;;;;;5033836;28;20520;-83
2021/09/20 00:19:23;;;;;;;13.27;7.78;;;10.10;93.60;;;;;;5019769;28;20041;-83
2021/09/20 00:21:48;;;;;;;9.48;6.75;;;9.90;94.00;;;;;;5023949;28;20040;-83
2021/09/20 00:24:14;;;;;;;9.70;7.07;;;9.90;94.00;;;;;;5028381;28;20032;-84
2021/09/20 00:26:39;;;;;;;9.48;7.50;;;9.80;93.90;;;;;;5043337;28;20052;-83
2021/09/20 00:29:05;;;;;;;10.40;7.68;;;9.80;94.00;;;;;;5028741;28;20029;-84
2021/09/20 00:31:30;;;;;;;9.35;7.55;;;9.80;94.60;;;;;;5039815;28;20041;-83
2021/09/20 00:33:56;;;;;;;12.10;8.32;;;9.80;94.20;;;;;;5036031;28;20025;-83
2021/09/20 00:36:21;;;;;;;8.63;7.03;;;9.80;94.50;;;;;;5024423;28;20035;-83
2021/09/20 00:38:47;;;;;;;12.32;7.15;;;9.70;94.10;;;;;;5012662;28;20109;-83
2021/09/20 00:41:12;;;;;;;10.43;6.88;;;9.70;93.90;;;;;;5025703;28;20037;-83
2021/09/20 00:43:38;;;;;;;13.45;8.32;;;9.60;93.90;;;;;;5041523;28;20064;-83
2021/09/20 00:46:04;;;;;;;11.80;7.95;;;9.50;94.30;;;;;;5027295;28;20259;-83
2021/09/20 00:48:30;;;;;;;11.27;7.90;;;9.50;94.10;;;;;;5045043;28;20024;-83
2021/09/20 00:51:06;;;;;;;10.35;7.55;;;9.40;94.30;;;;;;5039707;28;20413;-83
2021/09/20 00:53:31;;;;;;;10.32;7.20;;;9.50;94.60;;;;;;5037719;28;20029;-83
2021/09/20 00:55:57;;;;;;;9.70;7.72;;;9.50;95.00;;;;;;5043189;28;20048;-82
2021/09/20 00:58:22;;;;;;;9.68;6.97;;;9.50;94.60;;;;;;5040192;28;20048;-82
2021/09/20 01:00:48;;;;;;;11.20;7.13;;;9.60;95.40;;;;;;5007869;28;20076;-84
2021/09/20 01:03:13;;;;;;;10.00;7.88;;;9.60;95.90;;;;;;5024319;28;20413;-83
2021/09/20 01:05:39;;;;;;;11.38;8.20;;;9.70;95.10;;;;;;5044914;28;20052;-83
2021/09/20 01:08:04;;;;;;;13.10;7.72;;;9.60;95.10;;;;;;5018418;28;20028;-83
2021/09/20 01:10:30;;;;;;;10.02;7.60;;;9.50;94.30;;;;;;5021911;28;20029;-83
2021/09/20 01:12:56;;;;;;;11.95;7.70;;;9.60;94.80;;;;;;5041573;28;20540;-83
2021/09/20 01:15:21;;;;;;;15.10;7.72;;;9.60;95.00;;;;;;5027367;28;20025;-84
2021/09/20 01:17:47;;;;;;;11.60;7.65;;;9.70;95.70;;;;;;5027712;28;20028;-83
2021/09/20 01:20:13;;;;;;;13.07;7.55;;;9.60;95.40;;;;;;5047492;28;20040;-83
2021/09/20 01:22:38;;;;;;;10.18;7.65;;;9.70;94.90;;;;;;5047232;28;20028;-83
2021/09/20 01:25:08;;;;;;;11.75;7.88;;;9.70;95.70;;;;;;5023082;28;20039;-82
2021/09/20 01:27:34;;;;;;;11.48;7.93;;;9.70;95.20;;;;;;5019276;28;20033;-83
2021/09/20 01:29:59;;;;;;;12.95;8.18;;;9.70;95.20;;;;;;5030139;28;20361;-83
2021/09/20 01:32:25;;;;;;;13.23;7.85;;;9.70;95.80;;;;;;5027505;28;20430;-83
2021/09/20 01:34:50;;;;;;;9.75;7.90;;;9.80;95.60;;;;;;5038016;28;20017;-84
2021/09/20 01:37:16;;;;;;;10.38;7.38;;;9.80;95.40;;;;;;5037601;28;20084;-82
2021/09/20 01:39:41;;;;;;;10.68;8.23;;;9.80;95.80;;;;;;5012114;28;20114;-83
2021/09/20 01:42:07;;;;;;;12.90;8.40;;;9.90;96.00;;;;;;5033535;28;20036;-84
2021/09/20 01:44:33;;;;;;;10.73;7.65;;;9.90;95.40;;;;;;5037290;28;20033;-83
2021/09/20 01:46:59;;;;;;;12.30;8.43;;;9.90;96.10;;;;;;5032638;28;20394;-82
2021/09/20 01:49:26;;;;;;;12.95;8.38;;;10.00;95.10;;;;;;5035508;28;20175;-84
2021/09/20 01:51:51;;;;;;;11.30;7.95;;;10.10;94.90;;;;;;5002193;28;20053;-84
2021/09/20 01:54:17;;;;;;;10.15;7.95;;;10.10;95.50;;;;;;5035593;28;20118;-84
2021/09/20 01:56:42;;;;;;;10.35;8.38;;;10.10;95.50;;;;;;5019462;28;20037;-83
2021/09/20 01:59:08;;;;;;;13.02;9.23;;;10.10;95.50;;;;;;5026460;28;20047;-83
2021/09/20 02:01:34;;;;;;;10.85;8.70;;;10.20;95.20;;;;;;5037050;28;20045;-83
2021/09/20 02:03:59;;;;;;;11.07;8.45;;;10.20;94.60;;;;;;5039398;28;20041;-83
2021/09/20 02:06:25;;;;;;;13.63;7.97;;;10.20;94.90;;;;;;5038376;28;20055;-82
2021/09/20 02:08:51;;;;;;;11.07;7.60;;;10.20;95.80;;;;;;5026400;28;20061;-79
2021/09/20 02:11:17;;;;;;;11.68;9.07;;;10.20;95.20;;;;;;5018412;28;20095;-79
2021/09/20 02:13:42;;;;;;;14.18;8.73;;;10.10;95.20;;;;;;5023525;28;20029;-79
2021/09/20 02:16:08;;;;;;;10.02;8.55;;;10.30;94.80;;;;;;5011123;28;20128;-79
2021/09/20 02:18:36;;;;;;;11.30;8.13;;;10.30;94.90;;;;;;5037026;28;20059;-79
2021/09/20 02:21:03;;;;;;;10.15;8.02;;;10.40;95.60;;;;;;5021729;28;20030;-79
2021/09/20 02:23:28;;;;;;;10.77;8.40;;;10.30;95.70;;;;;;5023926;28;20105;-79
2021/09/20 02:25:54;;;;;;;12.18;7.82;;;10.30;94.90;;;;;;5039458;28;20449;-80
2021/09/20 02:28:19;;;;;;;12.52;9.48;;;10.30;95.00;;;;;;5045740;28;20481;-80
2021/09/20 02:30:45;;;;;;;14.07;10.05;;;10.30;94.90;;;;;;5005529;28;20108;-79
2021/09/20 02:33:10;;;;;;;10.68;7.90;;;10.30;95.00;;;;;;5039678;28;20116;-79
2021/09/20 02:35:36;;;;;;;14.40;8.75;;;10.40;95.70;;;;;;5045293;28;20039;-79
2021/09/20 02:38:02;;;;;;;13.15;8.70;;;10.40;95.20;;;;;;5026473;28;20464;-79
2021/09/20 02:40:27;;;;;;;12.10;8.20;;;10.50;95.80;;;;;;5033091;28;20068;-79
2021/09/20 02:42:53;;;;;;;12.10;8.07;;;10.50;94.90;;;;;;5039948;28;20112;-78
2021/09/20 02:45:18;;;;;;;10.02;8.10;;;10.50;94.70;;;;;;5030002;28;20112;-80
2021/09/20 02:47:44;;;;;;;10.75;8.07;;;10.50;95.10;;;;;;5046661;28;20119;-78
2021/09/20 02:50:10;;;;;;;14.02;8.82;;;10.50;94.80;;;;;;5025607;28;20048;-79
2021/09/20 02:52:36;;;;;;;12.10;8.43;;;10.50;95.30;;;;;;5043402;28;20467;-78
2021/09/20 02:55:01;;;;;;;12.57;8.50;;;10.50;95.00;;;;;;5027198;28;20108;-79
2021/09/20 02:57:27;;;;;;;13.85;8.60;;;10.60;95.20;;;;;;5038804;28;20061;-79
2021/09/20 02:59:52;;;;;;;11.88;8.52;;;10.60;94.90;;;;;;5041466;28;20043;-78
2021/09/20 03:02:18;;;;;;;11.68;8.80;;;10.60;95.00;;;;;;5011674;28;20040;-79
2021/09/20 03:04:43;;;;;;;10.77;8.02;;;10.60;94.80;;;;;;5037995;28;20037;-79
2021/09/20 03:07:09;;;;;;;10.27;7.70;;;10.60;94.90;;;;;;5012305;28;20025;-80
2021/09/20 03:09:34;;;;;;;12.25;8.55;;;10.50;94.80;;;;;;5038535;28;20389;-79
2021/09/20 03:12:00;;;;;;;12.70;8.77;;;10.60;95.20;;;;;;5021269;28;20021;-79
2021/09/20 03:14:25;;;;;;;10.40;7.90;;;10.50;94.70;;;;;;5031235;28;20048;-79
2021/09/20 03:16:51;;;;;;;10.95;8.57;;;10.60;94.80;;;;;;5044382;28;20028;-79
2021/09/20 03:19:17;;;;;;;10.95;7.53;;;10.60;94.50;;;;;;5045310;28;20040;-79
2021/09/20 03:21:42;;;;;;;12.95;8.60;;;10.60;94.70;;;;;;5043234;28;20115;-78
2021/09/20 03:24:10;;;;;;;12.00;8.60;;;10.60;95.00;;;;;;5050353;28;20029;-78
2021/09/20 03:26:35;;;;;;;9.77;7.38;;;10.70;94.60;;;;;;5042299;28;20116;-78
2021/09/20 03:29:01;;;;;;;13.18;7.97;;;10.70;94.90;;;;;;5034891;28;20500;-78
2021/09/20 03:31:26;;;;;;;13.18;8.77;;;10.70;94.80;;;;;;5013182;28;20083;-78
2021/09/20 03:33:55;;;;;;;14.15;8.98;;;10.70;94.50;;;;;;5007838;28;20028;-79
2021/09/20 03:36:20;;;;;;;14.88;8.32;;;10.70;94.80;;;;;;5020039;28;20413;-79
2021/09/20 03:38:46;;;;;;;9.50;7.25;;;10.70;94.40;;;;;;5012109;28;20392;-79
2021/09/20 03:41:11;;;;;;;17.20;8.60;;;10.70;94.50;;;;;;5022502;28;20129;-78
2021/09/20 03:43:37;;;;;;;11.40;7.82;;;10.80;95.30;;;;;;5026622;28;20037;-78
2021/09/20 03:46:03;;;;;;;11.43;8.00;;;10.80;94.70;;;;;;5020429;28;20059;-79
2021/09/20 03:48:28;;;;;;;12.02;8.15;;;10.80;94.50;;;;;;5059840;28;20063;-79
2021/09/20 03:50:54;;;;;;;11.80;8.02;;;10.70;94.70;;;;;;5003078;28;20059;-79
2021/09/20 03:53:19;;;;;;;9.63;8.05;;;10.80;94.50;;;;;;5024003;28;20100;-78
2021/09/20 03:55:45;;;;;;;13.43;8.00;;;10.70;94.30;;;;;;5009274;28;20037;-78
2021/09/20 03:58:12;;;;;;;9.93;7.47;;;10.70;94.70;;;;;;5022341;28;20037;-78
2021/09/20 04:00:37;;;;;;;9.77;8.07;;;10.80;94.70;;;;;;5018855;28;20112;-79
2021/09/20 04:03:03;;;;;;;12.82;7.90;;;10.80;94.50;;;;;;5036622;28;20067;-80
2021/09/20 04:05:29;;;;;;;16.75;8.20;;;10.80;94.30;;;;;;5041434;28;20029;-79
2021/09/20 04:07:54;;;;;;;9.73;7.57;;;10.80;94.80;;;;;;5006949;28;20028;-78
2021/09/20 04:10:20;;;;;;;13.02;7.55;;;10.80;94.30;;;;;;5026048;28;20531;-79
2021/09/20 04:12:45;;;;;;;11.32;8.45;;;10.80;94.40;;;;;;5036494;28;20397;-78
2021/09/20 04:15:11;;;;;;;10.85;7.95;;;10.80;94.70;;;;;;5018069;28;20055;-79
2021/09/20 04:17:36;;;;;;;9.35;7.30;;;10.80;94.80;;;;;;5041372;28;20166;-79
2021/09/20 04:20:03;;;;;;;11.48;8.15;;;10.80;94.80;;;;;;5021966;28;20035;-79
2021/09/20 04:22:29;;;;;;;9.07;7.10;;;10.80;94.80;;;;;;5039319;28;20037;-79
2021/09/20 04:24:54;;;;;;;9.77;7.47;;;10.80;94.70;;;;;;5041024;28;20035;-79
2021/09/20 04:27:20;;;;;;;10.45;7.45;;;10.90;94.40;;;;;;5028191;28;20033;-78
2021/09/20 04:29:48;;;;;;;11.85;7.97;;;10.80;94.50;;;;;;5040137;28;20098;-79
2021/09/20 04:32:13;;;;;;;11.85;7.88;;;10.80;94.40;;;;;;5025911;28;20056;-79
2021/09/20 04:34:39;;;;;;;11.48;8.00;;;10.80;94.40;;;;;;5009776;28;20052;-78
2021/09/20 04:37:04;;;;;;;11.10;8.20;;;10.80;94.40;;;;;;5005689;28;20040;-78
2021/09/20 04:39:45;;;;;;;9.85;7.22;;;10.80;94.50;;;;;;5023800;28;20044;-79
2021/09/20 04:42:11;;;;;;;10.43;7.40;;;10.90;94.40;;;;;;5041173;28;20396;-78
2021/09/20 04:44:37;;;;;;;16.92;8.15;;;10.90;94.30;;;;;;5042136;28;20035;-79
2021/09/20 04:47:03;;;;;;;11.10;7.18;;;10.90;94.40;;;;;;5026391;28;20167;-81
2021/09/20 04:49:28;;;;;;;13.25;7.70;;;10.90;94.30;;;;;;5024225;28;20392;-79
2021/09/20 04:51:54;;;;;;;10.25;7.07;;;10.90;94.40;;;;;;4993542;28;20032;-79
2021/09/20 04:54:19;;;;;;;11.80;7.85;;;10.90;94.50;;;;;;5008427;28;20038;-79
2021/09/20 04:56:45;;;;;;;11.07;8.07;;;10.90;94.40;;;;;;5007077;28;20041;-79
2021/09/20 04:59:10;;;;;;;9.10;7.82;;;10.90;94.30;;;;;;5047436;28;20053;-78
2021/09/20 05:01:37;;;;;;;12.27;7.78;;;10.80;94.20;;;;;;5022343;28;20040;-78
2021/09/20 05:04:03;;;;;;;10.80;7.78;;;10.90;94.40;;;;;;5025056;28;20033;-79
2021/09/20 05:06:28;;;;;;;12.38;7.80;;;10.90;94.40;;;;;;5015714;28;20578;-78
2021/09/20 05:08:54;;;;;;;12.40;7.70;;;10.80;94.10;;;;;;5022075;28;20117;-79
2021/09/20 05:11:19;;;;;;;10.63;7.72;;;10.90;94.40;;;;;;5036514;28;20473;-80
2021/09/20 05:13:45;;;;;;;12.75;7.90;;;10.90;94.20;;;;;;5040270;28;20625;-79
2021/09/20 05:16:11;;;;;;;10.48;7.82;;;10.90;94.40;;;;;;5024372;28;20087;-78
2021/09/20 05:18:36;;;;;;;12.70;8.63;;;10.90;94.20;;;;;;5040252;28;20086;-79
2021/09/20 05:21:02;;;;;;;10.18;7.63;;;10.90;94.30;;;;;;5027199;28;20029;-79
2021/09/20 05:23:27;;;;;;;12.05;7.75;;;10.90;94.20;;;;;;5009038;28;20025;-79
2021/09/20 05:25:53;;;;;;;11.05;7.75;;;10.90;94.20;;;;;;5037305;28;20032;-80
2021/09/20 05:28:21;;;;;;;9.45;7.57;;;10.90;94.20;;;;;;5024936;28;20051;-78
2021/09/20 05:30:46;;;;;;;10.45;8.05;;;11.00;94.10;;;;;;5035955;28;20113;-79
2021/09/20 05:33:14;;;;;;;9.77;7.20;;;11.00;94.10;;;;;;5035209;28;20120;-80
2021/09/20 05:35:40;;;;;;;11.23;7.90;;;11.00;94.10;;;;;;5040419;28;20456;-79
2021/09/20 05:38:14;;;;;;;10.07;7.43;;;11.00;94.00;;;;;;5033085;28;20101;-80
2021/09/20 05:40:42;;;;;;;10.55;7.75;;;11.00;94.10;;;;;;5042637;28;20114;-80
2021/09/20 05:43:08;;;;;;;13.10;8.25;;;11.00;94.20;;;;;;5022977;28;20024;-80
2021/09/20 05:45:34;;;;;;;11.50;7.15;;;11.10;94.00;;;;;;5039112;28;20843;-80
2021/09/20 05:48:00;;;;;;;12.05;8.30;;;11.10;94.20;;;;;;5009750;28;20392;-79
2021/09/20 05:50:26;;;;;;;12.68;8.25;;;11.10;94.20;;;;;;5045181;28;20049;-80
2021/09/20 05:52:51;;;;;;;9.43;7.60;;;11.10;93.90;;;;;;5044380;28;20037;-79
2021/09/20 05:55:17;;;;;;;9.57;7.45;;;11.10;94.10;;;;;;5025136;28;20039;-79
2021/09/20 05:57:42;;;;;;;13.25;8.10;;;11.10;94.20;;;;;;5039045;28;20033;-80
2021/09/20 06:00:09;;;;;;;14.48;8.20;;;11.10;94.10;;;;;;5041883;28;20511;-79
2021/09/20 06:02:34;;;;;;;11.02;8.82;;;11.10;94.20;;;;;;5048882;28;20044;-80
2021/09/20 06:05:00;;;;;;;8.98;7.28;;;11.20;94.00;;;;;;5013477;28;20488;-80
2021/09/20 06:07:26;;;;;;;11.00;8.13;;;11.20;94.10;;;;;;5013049;28;20043;-80
2021/09/20 06:09:51;;;;;;;9.80;7.78;;;11.20;94.00;;;;;;5039812;28;20395;-80
2021/09/20 06:12:19;;;;;;;10.93;7.63;;;11.30;94.10;;;;;;5025554;28;20037;-79
2021/09/20 06:14:46;;;;;;;11.82;8.30;;;11.20;93.90;;;;;;5040814;28;20111;-80
2021/09/20 06:17:11;;;;;;;15.35;8.52;;;11.30;94.20;;;;;;5023222;28;20025;-79
2021/09/20 06:19:37;;;;;;;15.75;8.52;;;11.30;94.00;;;;;;5039221;28;20029;-79
2021/09/20 06:22:02;;;;;;;10.10;8.00;;;11.30;94.00;;;;;;5045122;28;20388;-79
2021/09/20 06:24:28;;;;;;;12.18;8.15;;;11.40;94.10;;;;;;5015323;28;20461;-79
2021/09/20 06:26:53;;;;;;;8.85;7.15;;;11.40;94.00;;;;;;5019558;28;20036;-79
2021/09/20 06:29:19;;;;;;;11.27;7.72;;;11.50;94.20;;;;;;5023438;28;20082;-79
2021/09/20 06:31:44;;;;;;;11.95;7.90;;;11.50;94.10;;;;;;5018242;28;20029;-80
2021/09/20 06:34:10;;;;;;;8.27;6.88;;;11.60;94.10;;;;;;5002356;28;20398;-79
2021/09/20 06:36:36;;;;;;;8.75;7.50;;;11.60;94.00;;;;;;5023739;28;20511;-80
2021/09/20 06:39:01;;;;;;;13.68;8.43;;;11.70;94.00;;;;;;5044418;28;20675;-79
2021/09/20 06:41:27;;;;;;;9.50;7.35;;;11.70;93.90;;;;;;5029005;28;20025;-79
2021/09/20 06:43:52;;;;;;;8.30;7.38;;;11.80;93.90;;;;;;5023235;28;20407;-79
2021/09/20 06:46:18;;;;;;;12.07;6.95;;;11.80;93.80;;;;;;5042620;28;20504;-79
2021/09/20 06:48:43;;;;;;;11.10;7.40;;;11.90;93.80;;;;;;5039490;28;20035;-79
2021/09/20 06:51:09;;;;;;;9.20;7.57;;;11.90;93.80;;;;;;5029768;28;20041;-79
2021/09/20 06:53:35;;;;;;;10.27;8.23;;;12.00;93.80;;;;;;5026237;28;20032;-80
2021/09/20 06:56:00;;;;;;;12.82;7.28;;;12.00;94.10;;;;;;5030932;28;20022;-80
2021/09/20 06:58:26;;;;;;;11.93;8.30;;;12.10;93.90;;;;;;5018281;28;20048;-79
2021/09/20 07:00:51;;;;;;;10.52;8.25;;;12.20;94.00;;;;;;5048395;28;20025;-79
2021/09/20 07:03:17;;;;;;;11.50;7.38;;;12.20;93.90;;;;;;5017652;28;20082;-81
2021/09/20 07:05:43;;;;;;;9.65;7.25;;;12.30;93.70;;;;;;5035789;28;20021;-80
2021/09/20 07:08:08;;;;;;;11.95;8.15;;;12.40;93.90;;;;;;5052312;28;20048;-79
2021/09/20 07:10:34;;;;;;;12.65;8.55;;;12.40;94.10;;;;;;5038044;28;20087;-79
2021/09/20 07:12:59;;;;;;;11.68;7.97;;;12.50;94.00;;;;;;5004926;28;20029;-79
2021/09/20 07:15:25;;;;;;;8.73;7.50;;;12.60;94.10;;;;;;5017473;28;20037;-79
2021/09/20 07:17:51;;;;;;;9.85;7.68;;;12.60;93.80;;;;;;5043573;28;20044;-80
2021/09/20 07:20:16;;;;;;;13.60;7.70;;;12.70;93.90;;;;;;5027213;28;20044;-79
2021/09/20 07:22:44;;;;;;;9.93;7.57;;;12.80;94.10;;;;;;5011780;28;20037;-80
2021/09/20 07:25:11;;;;;;;8.90;7.82;;;12.90;94.00;;;;;;5042400;28;20500;-80
2021/09/20 07:27:37;;;;;;;12.52;7.85;;;13.00;94.00;;;;;;5025824;28;20037;-80
2021/09/20 07:30:04;;;;;;;9.57;7.40;;;13.00;93.90;;;;;;5005573;28;20033;-80
2021/09/20 07:32:30;;;;;;;8.68;7.70;;;13.10;94.00;;;;;;5023800;28;20451;-80
2021/09/20 07:34:55;;;;;;;11.55;7.75;;;13.20;93.90;;;;;;5022187;28;20040;-81
2021/09/20 07:37:21;;;;;;;9.88;7.90;;;13.30;93.90;;;;;;5043488;28;20449;-79
2021/09/20 07:39:46;;;;;;;8.70;6.90;;;13.40;93.90;;;;;;5043355;28;20037;-79
2021/09/20 07:42:12;;;;;;;8.25;6.63;;;13.40;93.00;;;;;;5041038;28;20029;-80
2021/09/20 07:44:37;;;;;;;14.98;7.88;;;13.60;93.80;;;;;;5007573;28;20288;-80
2021/09/20 07:47:03;;;;;;;11.95;7.35;;;13.60;93.80;;;;;;5005290;28;20028;-80
2021/09/20 07:49:29;;;;;;;9.10;6.75;;;13.60;93.60;;;;;;5023984;28;20040;-80
2021/09/20 07:51:54;;;;;;;10.40;6.95;;;13.80;93.30;;;;;;5045782;28;20033;-81
2021/09/20 07:54:20;;;;;;;10.48;7.20;;;13.90;93.60;;;;;;5021329;28;20033;-82
2021/09/20 07:56:45;;;;;;;14.07;7.85;;;14.00;93.30;;;;;;5005498;28;20109;-82
2021/09/20 07:59:11;;;;;;;10.88;6.78;;;14.10;93.30;;;;;;5038837;28;20061;-82
2021/09/20 08:01:36;;;;;;;9.57;6.82;;;14.30;93.20;;;;;;5037412;28;20468;-82
2021/09/20 08:04:02;;;;;;;12.60;7.80;;;14.30;93.00;;;;;;5035536;28;20033;-82
2021/09/20 08:06:28;;;;;;;11.18;6.90;;;14.50;93.30;;;;;;5030284;28;20089;-82
2021/09/20 08:08:54;;;;;;;8.90;6.07;;;14.60;93.10;;;;;;5023834;28;20108;-83
2021/09/20 08:11:20;;;;;;;7.75;6.00;;;14.80;93.20;;;;;;5021865;28;20163;-82
2021/09/20 08:13:45;;;;;;;7.03;6.20;;;14.90;93.20;;;;;;5019267;28;20035;-82
2021/09/20 08:16:11;;;;;;;9.38;7.10;;;15.00;93.10;;;;;;5003506;28;20028;-82
2021/09/20 08:18:37;;;;;;;7.43;6.07;;;15.10;93.00;;;;;;5015631;28;20143;-82
2021/09/20 08:21:02;;;;;;;8.23;5.95;;;15.20;91.70;;;;;;5017054;28;20030;-82
2021/09/20 08:23:28;;;;;;;9.32;6.15;;;15.20;91.90;;;;;;5020933;28;20254;-82
2021/09/20 08:25:54;;;;;;;7.10;6.05;;;15.20;93.10;;;;;;5037988;28;20059;-82
2021/09/20 08:28:20;;;;;;;9.52;6.65;;;15.40;92.70;;;;;;5043894;28;20036;-82
2021/09/20 08:30:45;;;;;;;13.73;6.97;;;15.40;92.70;;;;;;5022427;28;20016;-82
2021/09/20 08:33:11;;;;;;;9.15;6.68;;;15.40;90.80;;;;;;5026982;28;20030;-82
2021/09/20 08:35:36;;;;;;;8.00;5.95;;;15.30;92.00;;;;;;5019621;28;20473;-82
2021/09/20 08:38:08;;;;;;;9.45;6.05;;;15.40;91.70;;;;;;5038561;28;20045;-82
2021/09/20 08:40:34;;;;;;;7.40;5.95;;;15.40;91.60;;;;;;5023369;28;20137;-83
2021/09/20 08:43:00;;;;;;;8.38;5.65;;;15.40;91.70;;;;;;5011612;28;20369;-82
2021/09/20 08:45:26;;;;;;;6.68;5.90;;;15.40;90.20;;;;;;5005433;28;20047;-82
2021/09/20 08:47:52;;;;;;;6.13;5.30;;;15.30;90.00;;;;;;5011873;28;20156;-82
2021/09/20 08:50:23;;;;;;;10.50;5.22;;;15.20;89.90;;;;;;5006924;28;20058;-82
2021/09/20 08:52:48;;;;;;;10.02;5.50;;;15.20;88.60;;;;;;5025421;28;20108;-82
2021/09/20 08:55:14;;;;;;;10.15;4.78;;;15.20;90.00;;;;;;5025978;28;20485;-82
2021/09/20 08:57:39;;;;;;;6.63;5.18;;;15.40;88.30;;;;;;5040539;28;20024;-82
2021/09/20 09:00:06;;;;;;;5.07;4.55;;;15.50;87.70;;;;;;5029951;28;20068;-82
2021/09/20 09:02:32;;;;;;;7.40;4.70;;;15.40;87.40;;;;;;5015576;28;20029;-82
2021/09/20 09:05:23;;;;;;;6.28;4.25;;;15.30;88.30;;;;;;5014023;28;20052;-82
2021/09/20 09:07:53;;;;;;;7.82;5.55;;;15.60;88.40;;;;;;5016704;28;20322;-82
2021/09/20 09:10:21;;;;;;;5.50;5.00;;;15.60;87.70;;;;;;5035690;28;20534;-82
2021/09/20 09:12:47;;;;;;;5.93;4.68;;;15.60;86.60;;;;;;5033068;28;20037;-82
2021/09/20 09:15:13;;;;;;;9.98;5.35;;;15.40;86.60;;;;;;5017088;28;20037;-82
2021/09/20 09:17:44;;;;;;;5.50;4.60;;;15.50;87.10;;;;;;5024729;28;20032;-84
2021/09/20 09:20:10;;;;;;;6.05;4.82;;;15.40;86.30;;;;;;5004122;28;20050;-83
2021/09/20 09:22:41;;;;;;;8.45;5.80;;;15.30;86.20;;;;;;5041309;28;20041;-83
2021/09/20 09:25:08;;;;;;;5.32;4.82;;;15.30;86.30;;;;;;5011698;28;20039;-83
2021/09/20 09:27:36;;;;;;;8.40;5.35;;;15.30;86.30;;;;;;5027547;28;20025;-84
2021/09/20 09:30:10;;;;;;;6.07;5.03;;;15.70;87.50;;;;;;5043393;28;20029;-83
2021/09/20 09:32:36;;;;;;;11.43;5.38;;;16.00;85.40;;;;;;4998799;28;20532;-83
2021/09/20 09:35:04;;;;;;;8.45;5.53;;;16.00;84.50;;;;;;5032414;28;20033;-83
2021/09/20 09:37:30;;;;;;;10.05;4.72;;;15.70;85.30;;;;;;5020184;28;20038;-84
2021/09/20 09:40:15;;;;;;;6.50;5.30;;;15.60;84.80;;;;;;5010836;28;20036;-83
2021/09/20 09:42:41;;;;;;;5.80;4.95;;;15.60;85.50;;;;;;5033182;28;20016;-83
2021/09/20 09:45:25;;;;;;;8.82;5.38;;;15.90;85.00;;;;;;5028754;28;20028;-83
2021/09/20 09:48:06;;;;;;;6.22;4.80;;;16.20;83.60;;;;;;5041615;28;20055;-83
2021/09/20 09:50:31;;;;;;;7.07;4.22;;;17.00;83.40;;;;;;5027007;28;20102;-83
2021/09/20 09:52:57;;;;;;;5.93;4.47;;;17.70;81.40;;;;;;5020299;28;20033;-83
2021/09/20 09:55:24;;;;;;;5.97;4.85;;;17.60;80.90;;;;;;5027945;28;20108;-83
2021/09/20 09:57:50;;;;;;;6.03;5.43;;;17.60;81.40;;;;;;5008377;28;20079;-83
2021/09/20 10:00:17;;;;;;;7.32;5.13;;;16.20;82.00;;;;;;5023903;28;20458;-83
2021/09/20 10:02:48;;;;;;;5.70;5.07;;;16.40;83.70;;;;;;5022077;28;20033;-83
2021/09/20 10:05:18;;;;;;;6.57;5.40;;;16.20;84.10;;;;;;4987304;28;20096;-83
2021/09/20 10:07:49;;;;;;;9.02;4.88;;;16.00;82.40;;;;;;5013810;28;20047;-83
2021/09/20 10:10:19;;;;;;;6.95;4.70;;;16.00;83.20;;;;;;5025774;28;20135;-83
2021/09/20 10:12:48;;;;;;;5.15;4.60;;;16.20;83.00;;;;;;5014178;28;20045;-84
2021/09/20 10:15:15;;;;;;;6.85;4.95;;;16.30;82.90;;;;;;5029329;28;20642;-84
2021/09/20 10:17:42;;;;;;;6.38;5.13;;;16.40;82.30;;;;;;5038262;28;20047;-84
2021/09/20 10:20:16;;;;;;;5.78;5.13;;;16.90;84.10;;;;;;5029318;28;20094;-84
2021/09/20 10:22:43;;;;;;;5.82;5.25;;;17.60;81.30;;;;;;4999076;28;20090;-83
2021/09/20 10:25:10;;;;;;;6.43;4.57;;;17.20;81.70;;;;;;5003310;28;20029;-84
2021/09/20 10:27:37;;;;;;;4.82;4.30;;;16.70;83.10;;;;;;5026669;28;20496;-84
2021/09/20 10:30:08;;;;;;;7.65;4.95;;;17.30;83.20;;;;;;5032811;28;20522;-84
2021/09/20 10:32:33;;;;;;;5.78;4.88;;;17.20;79.90;;;;;;5041864;28;20032;-84
2021/09/20 10:35:24;;;;;;;5.25;4.75;;;17.00;81.40;;;;;;5027554;28;20044;-85
2021/09/20 10:37:56;;;;;;;4.72;4.20;;;16.70;80.60;;;;;;5043005;28;20032;-84
2021/09/20 10:40:21;;;;;;;6.00;5.38;;;17.50;84.00;;;;;;5040533;28;20029;-84
2021/09/20 10:42:52;;;;;;;6.97;4.15;;;17.90;79.30;;;;;;5006799;28;20393;-85
2021/09/20 10:45:49;;;;;;;5.10;4.03;;;17.60;79.90;;;;;;5021042;28;20044;-85
2021/09/20 10:48:20;;;;;;;6.15;4.90;;;18.50;80.30;;;;;;5042556;28;20464;-84
2021/09/20 10:50:54;;;;;;;5.28;4.53;;;18.70;77.40;;;;;;5059442;28;20024;-84
2021/09/20 10:53:35;;;;;;;5.60;4.82;;;17.70;79.20;;;;;;5043556;28;20496;-84
2021/09/20 10:56:03;;;;;;;6.57;4.20;;;17.60;78.60;;;;;;5043615;28;20589;-84
2021/09/20 10:58:29;;;;;;;4.65;4.25;;;17.90;81.90;;;;;;5040105;28;20040;-85
2021/09/20 11:01:15;;;;;;;5.28;4.80;;;19.10;80.00;;;;;;5024838;28;20038;-82
2021/09/20 11:03:50;;;;;;;8.10;4.97;;;19.50;78.20;;;;;;5014644;28;20516;-82
2021/09/20 11:06:22;;;;;;;7.43;4.68;;;18.50;77.20;;;;;;5018464;28;20095;-82
2021/09/20 11:09:01;;;;;;;5.88;4.47;;;19.30;79.10;;;;;;5035404;28;20044;-82
2021/09/20 11:11:40;;;;;;;5.28;4.30;;;18.60;78.80;;;;;;5041970;28;20500;-82
2021/09/20 11:14:08;;;;;;;7.68;5.07;;;19.40;80.00;;;;;;5037664;28;20028;-82
2021/09/20 11:16:59;;;;;;;5.63;4.78;;;19.50;77.50;;;;;;5024926;28;20039;-83
2021/09/20 11:19:27;;;;;;;6.65;4.63;;;19.50;79.40;;;;;;5022671;28;20036;-82
2021/09/20 11:24:37;;;;;;;9.30;4.70;;;19.90;78.70;;;;;;5064387;28;20399;-82
2021/09/20 11:27:11;;;;;;;5.55;4.22;;;20.50;73.30;;;;;;5039981;28;20504;-82
2021/09/20 11:29:37;;;;;;;7.10;5.30;;;20.30;75.80;;;;;;5018863;28;20036;-82
2021/09/20 11:32:04;;;;;;;7.50;4.97;;;19.30;74.90;;;;;;5024921;28;20037;-82
2021/09/20 11:34:30;;;;;;;6.03;5.05;;;19.20;75.00;;;;;;5027688;28;20487;-83
2021/09/20 11:37:09;;;;;;;6.25;4.80;;;19.60;76.60;;;;;;5015100;28;20503;-82
2021/09/20 11:39:45;;;;;;;8.68;5.40;;;20.30;76.60;;;;;;5040854;28;20048;-83
2021/09/20 11:42:12;;;;;;;7.75;5.30;;;19.80;74.90;;;;;;5024672;28;20487;-82
2021/09/20 11:44:39;;;;;;;6.40;5.35;;;19.20;75.70;;;;;;5034361;28;20108;-82
2021/09/20 11:47:04;;;;;;;6.50;5.10;;;18.90;74.00;;;;;;5021326;28;20033;-85
2021/09/20 11:49:30;;;;;;;5.93;5.18;;;18.80;75.70;;;;;;4999200;28;20169;-85
2021/09/20 11:51:57;;;;;;;10.15;5.90;;;19.20;75.20;;;;;;5023452;28;20099;-85
2021/09/20 11:54:27;;;;;;;4.95;4.38;;;19.40;76.40;;;;;;5007234;28;20039;-85
2021/09/20 11:56:52;;;;;;;7.32;5.28;;;19.60;76.60;;;;;;5020902;28;20064;-85
2021/09/20 11:59:19;;;;;;;5.72;4.30;;;19.90;75.60;;;;;;5006693;28;20028;-85
2021/09/20 12:01:45;;;;;;;8.65;4.70;;;20.60;74.60;;;;;;5042550;28;20027;-85
2021/09/20 12:04:10;;;;;;;7.13;4.28;;;21.30;73.50;;;;;;5022420;28;20044;-85
2021/09/20 12:06:36;;;;;;;5.00;4.50;;;21.90;72.80;;;;;;5020268;28;21671;-85
2021/09/20 12:09:03;;;;;;;6.30;4.75;;;21.50;75.40;;;;;;5017344;28;20036;-85
2021/09/20 12:11:29;;;;;;;6.43;4.53;;;21.40;75.40;;;;;;5019518;28;20036;-85
2021/09/20 12:13:55;;;;;;;9.48;4.72;;;21.80;71.40;;;;;;5025643;28;20029;-85
2021/09/20 12:16:20;;;;;;;10.20;4.90;;;21.30;73.60;;;;;;5030511;28;20111;-85
2021/09/20 12:18:46;;;;;;;4.97;4.47;;;21.80;73.70;;;;;;5001969;28;20029;-85
2021/09/20 12:21:13;;;;;;;5.85;5.03;;;21.30;72.10;;;;;;5022261;28;20029;-85
2021/09/20 12:23:44;;;;;;;7.20;5.63;;;21.40;73.90;;;;;;5021425;28;20039;-83
2021/09/20 12:26:15;;;;;;;6.65;5.45;;;21.10;72.60;;;;;;5022196;28;20029;-82
2021/09/20 12:28:43;;;;;;;9.75;5.85;;;21.00;72.70;;;;;;5042088;28;20129;-85
2021/09/20 12:31:15;;;;;;;10.45;6.75;;;20.90;70.80;;;;;;5051343;28;20037;-86
2021/09/20 12:33:57;;;;;;;5.60;5.00;;;20.80;71.10;;;;;;5018825;28;20032;-86
2021/09/20 12:36:33;;;;;;;5.43;4.93;;;21.30;72.10;;;;;;5021079;28;20033;-86
2021/09/20 12:39:10;;;;;;;8.80;5.60;;;21.90;71.70;;;;;;5043532;28;20166;-86
2021/09/20 12:41:39;;;;;;;8.80;4.90;;;21.50;72.10;;;;;;5014184;28;20063;-86
2021/09/20 12:44:06;;;;;;;6.38;5.60;;;21.40;73.30;;;;;;5041273;28;20484;-86
2021/09/20 12:46:32;;;;;;;8.70;5.13;;;21.10;70.40;;;;;;5031393;28;20077;-83